메인 페이지
METAR-TAF:

METAR-TAF

공항 :

콩코드, 뉴햄프셔, 미국

위도: 43-11-43N, 경도: 071-30-04W, 고도: 105m

현재 날씨관측

예보는 6분 전, 18:51시(UTC)에 발표되었습니다.
서북서14kt, 순간 최대 풍속 25kt
온도 7°C
습도 76%
기압 1007 hPa
시정: 16.1km
고도 2300ft 상공 구름 보통
고도 2700ft 상공 구름 많음
고도 5500ft 상공 흐림

METAR: KCON 231851Z AUTO 29014G25KT 10SM SCT023 BKN027 OVC055 07/03 A2974 RMK AO2 RAB02E13 SLP074 P0000 T00670028

시각: 13:57 (18:57 UTC)

예보

예보는 1 시간 20분 전, 17:37시(UTC)에 발표되었습니다.
예보 대상 시간: 23일 18시부터 24일 18시까지 (UTC)
서북서8kt
시정: 8.0km
고도 2000ft 상공 흐림
약한비, 박무
23일 2000시부터 (UTC)
서북서12kt, 순간 최대 풍속 24kt
시정: 10km
고도 5000ft 상공 구름 많음
24일 0600시부터 (UTC)
서북서8kt
시정: 10km
고도 25000ft 상공 구름 조금
24일 1400시부터 (UTC)
북서15kt, 순간 최대 풍속 25kt
시정: 10km
맑음

TAF: KCON 231737Z 2318/2418 30008KT 5SM -RA BR OVC020 FM232000 30012G24KT P6SM BKN050 FM240600 30008KT P6SM FEW250 FM241400 31015G25KT P6SM SKC

4,000개 이상의 공항 관측 자료 및 예보 (METAR 및 TAF 보고).

지도상에서 검색 가능한 기상관측소가 노란 점과 빨간 점으로 표시되어 있습니다.

기상관측소 명을 보려면 표시 위로 마우스를 이동하세요.

날씨 관측과 예보를 보려면 클릭하세요.

지도 변경 : 확대하려면 엑스 표시가 있는 녹색 버튼, 축소하려면 빼기 표시가 있는 녹색 버튼, 다음 페이지의 지도를 보려면 녹색 화살표를 클릭하세요.


METAR-TAF: